sensor_id;sensor_type;location;lat;lon;timestamp;P1;durP1;ratioP1;P2;durP2;ratioP2
41921;SDS011;27609;51.002;5.354;2023-10-09T00:01:17;16.80;;;7.50;;
41921;SDS011;27609;51.002;5.354;2023-10-09T00:03:46;12.13;;;7.50;;
41921;SDS011;27609;51.002;5.354;2023-10-09T00:06:18;12.38;;;6.78;;
41921;SDS011;27609;51.002;5.354;2023-10-09T00:08:56;12.70;;;6.93;;
41921;SDS011;27609;51.002;5.354;2023-10-09T00:11:22;12.38;;;7.28;;
41921;SDS011;27609;51.002;5.354;2023-10-09T00:13:54;14.45;;;6.78;;
41921;SDS011;27609;51.002;5.354;2023-10-09T00:16:24;14.70;;;6.45;;
41921;SDS011;27609;51.002;5.354;2023-10-09T00:19:04;11.50;;;6.75;;
41921;SDS011;27609;51.002;5.354;2023-10-09T00:21:44;11.57;;;6.00;;
41921;SDS011;27609;51.002;5.354;2023-10-09T00:24:11;15.60;;;6.88;;
41921;SDS011;27609;51.002;5.354;2023-10-09T00:26:55;15.45;;;6.93;;
41921;SDS011;27609;51.002;5.354;2023-10-09T00:29:27;14.43;;;5.95;;
41921;SDS011;27609;51.002;5.354;2023-10-09T00:31:59;9.48;;;6.20;;
41921;SDS011;27609;51.002;5.354;2023-10-09T00:34:48;10.25;;;6.60;;
41921;SDS011;27609;51.002;5.354;2023-10-09T00:37:15;11.52;;;6.38;;
41921;SDS011;27609;51.002;5.354;2023-10-09T00:39:42;13.93;;;7.30;;
41921;SDS011;27609;51.002;5.354;2023-10-09T00:42:14;12.52;;;7.45;;
41921;SDS011;27609;51.002;5.354;2023-10-09T00:44:50;14.07;;;8.27;;
41921;SDS011;27609;51.002;5.354;2023-10-09T00:47:16;10.13;;;6.93;;
41921;SDS011;27609;51.002;5.354;2023-10-09T00:49:58;12.07;;;7.10;;
41921;SDS011;27609;51.002;5.354;2023-10-09T00:52:51;10.23;;;6.20;;
41921;SDS011;27609;51.002;5.354;2023-10-09T00:55:26;12.43;;;7.35;;
41921;SDS011;27609;51.002;5.354;2023-10-09T00:58:02;15.25;;;7.15;;
41921;SDS011;27609;51.002;5.354;2023-10-09T01:00:38;10.88;;;7.25;;
41921;SDS011;27609;51.002;5.354;2023-10-09T01:03:14;12.85;;;7.00;;
41921;SDS011;27609;51.002;5.354;2023-10-09T01:05:41;13.32;;;7.38;;
41921;SDS011;27609;51.002;5.354;2023-10-09T01:08:31;14.98;;;8.07;;
41921;SDS011;27609;51.002;5.354;2023-10-09T01:11:05;12.27;;;6.85;;
41921;SDS011;27609;51.002;5.354;2023-10-09T01:13:38;11.13;;;6.65;;
41921;SDS011;27609;51.002;5.354;2023-10-09T01:16:17;12.18;;;8.20;;
41921;SDS011;27609;51.002;5.354;2023-10-09T01:18:50;11.45;;;6.88;;
41921;SDS011;27609;51.002;5.354;2023-10-09T01:21:17;11.60;;;7.72;;
41921;SDS011;27609;51.002;5.354;2023-10-09T01:23:49;12.20;;;7.68;;
41921;SDS011;27609;51.002;5.354;2023-10-09T01:26:24;18.63;;;7.93;;
41921;SDS011;27609;51.002;5.354;2023-10-09T01:28:50;13.77;;;8.13;;
41921;SDS011;27609;51.002;5.354;2023-10-09T01:31:23;18.20;;;8.30;;
41921;SDS011;27609;51.002;5.354;2023-10-09T01:33:52;14.48;;;7.88;;
41921;SDS011;27609;51.002;5.354;2023-10-09T01:36:27;16.80;;;7.47;;
41921;SDS011;27609;51.002;5.354;2023-10-09T01:38:59;16.15;;;8.23;;
41921;SDS011;27609;51.002;5.354;2023-10-09T01:41:27;15.55;;;8.02;;
41921;SDS011;27609;51.002;5.354;2023-10-09T01:43:53;12.25;;;7.80;;
41921;SDS011;27609;51.002;5.354;2023-10-09T01:46:25;14.68;;;8.50;;
41921;SDS011;27609;51.002;5.354;2023-10-09T01:48:51;11.93;;;8.60;;
41921;SDS011;27609;51.002;5.354;2023-10-09T01:51:18;10.90;;;7.65;;
41921;SDS011;27609;51.002;5.354;2023-10-09T01:53:45;14.27;;;8.45;;
41921;SDS011;27609;51.002;5.354;2023-10-09T01:56:22;14.52;;;8.18;;
41921;SDS011;27609;51.002;5.354;2023-10-09T01:58:47;12.73;;;8.07;;
41921;SDS011;27609;51.002;5.354;2023-10-09T02:01:15;16.17;;;8.43;;
41921;SDS011;27609;51.002;5.354;2023-10-09T02:03:41;12.23;;;7.38;;
41921;SDS011;27609;51.002;5.354;2023-10-09T02:06:08;15.38;;;8.57;;
41921;SDS011;27609;51.002;5.354;2023-10-09T02:08:55;12.82;;;7.65;;
41921;SDS011;27609;51.002;5.354;2023-10-09T02:11:21;15.80;;;8.23;;
41921;SDS011;27609;51.002;5.354;2023-10-09T02:14:06;12.65;;;7.15;;
41921;SDS011;27609;51.002;5.354;2023-10-09T02:16:44;11.07;;;6.75;;
41921;SDS011;27609;51.002;5.354;2023-10-09T02:19:27;13.45;;;8.35;;
41921;SDS011;27609;51.002;5.354;2023-10-09T02:22:05;15.77;;;8.65;;
41921;SDS011;27609;51.002;5.354;2023-10-09T02:24:38;13.88;;;7.80;;
41921;SDS011;27609;51.002;5.354;2023-10-09T02:27:13;16.80;;;7.80;;
41921;SDS011;27609;51.002;5.354;2023-10-09T02:29:59;11.88;;;7.55;;
41921;SDS011;27609;51.002;5.354;2023-10-09T02:32:33;13.60;;;8.07;;
41921;SDS011;27609;51.002;5.354;2023-10-09T02:35:00;17.55;;;8.25;;
41921;SDS011;27609;51.002;5.354;2023-10-09T02:37:35;14.00;;;7.80;;
41921;SDS011;27609;51.002;5.354;2023-10-09T02:40:03;13.63;;;8.38;;
41921;SDS011;27609;51.002;5.354;2023-10-09T02:42:33;12.32;;;7.25;;
41921;SDS011;27609;51.002;5.354;2023-10-09T02:44:59;13.70;;;8.57;;
41921;SDS011;27609;51.002;5.354;2023-10-09T02:47:26;13.50;;;6.95;;
41921;SDS011;27609;51.002;5.354;2023-10-09T02:49:56;13.15;;;7.68;;
41921;SDS011;27609;51.002;5.354;2023-10-09T02:52:31;13.85;;;7.50;;
41921;SDS011;27609;51.002;5.354;2023-10-09T02:55:05;13.00;;;7.75;;
41921;SDS011;27609;51.002;5.354;2023-10-09T02:57:37;11.73;;;7.78;;
41921;SDS011;27609;51.002;5.354;2023-10-09T03:00:07;15.77;;;8.18;;
41921;SDS011;27609;51.002;5.354;2023-10-09T03:02:44;16.00;;;7.72;;
41921;SDS011;27609;51.002;5.354;2023-10-09T03:05:14;13.70;;;7.40;;
41921;SDS011;27609;51.002;5.354;2023-10-09T03:07:41;11.25;;;7.30;;
41921;SDS011;27609;51.002;5.354;2023-10-09T03:10:07;15.88;;;8.90;;
41921;SDS011;27609;51.002;5.354;2023-10-09T03:12:35;14.25;;;8.38;;
41921;SDS011;27609;51.002;5.354;2023-10-09T03:15:01;14.38;;;9.07;;
41921;SDS011;27609;51.002;5.354;2023-10-09T03:17:27;16.92;;;8.05;;
41921;SDS011;27609;51.002;5.354;2023-10-09T03:19:53;13.45;;;8.35;;
41921;SDS011;27609;51.002;5.354;2023-10-09T03:22:19;11.50;;;7.38;;
41921;SDS011;27609;51.002;5.354;2023-10-09T03:24:45;14.30;;;7.57;;
41921;SDS011;27609;51.002;5.354;2023-10-09T03:27:11;14.73;;;7.50;;
41921;SDS011;27609;51.002;5.354;2023-10-09T03:29:38;19.75;;;8.75;;
41921;SDS011;27609;51.002;5.354;2023-10-09T03:32:04;11.82;;;8.02;;
41921;SDS011;27609;51.002;5.354;2023-10-09T03:34:31;11.73;;;7.43;;
41921;SDS011;27609;51.002;5.354;2023-10-09T03:36:57;16.85;;;7.47;;
41921;SDS011;27609;51.002;5.354;2023-10-09T03:39:32;11.02;;;6.78;;
41921;SDS011;27609;51.002;5.354;2023-10-09T03:42:06;16.73;;;7.47;;
41921;SDS011;27609;51.002;5.354;2023-10-09T03:47:06;19.27;;;7.32;;
41921;SDS011;27609;51.002;5.354;2023-10-09T03:49:35;15.38;;;8.07;;
41921;SDS011;27609;51.002;5.354;2023-10-09T03:52:04;13.73;;;8.00;;
41921;SDS011;27609;51.002;5.354;2023-10-09T03:54:31;13.50;;;7.85;;
41921;SDS011;27609;51.002;5.354;2023-10-09T03:57:00;11.63;;;7.88;;
41921;SDS011;27609;51.002;5.354;2023-10-09T03:59:26;18.35;;;9.15;;
41921;SDS011;27609;51.002;5.354;2023-10-09T04:01:56;15.18;;;8.20;;
41921;SDS011;27609;51.002;5.354;2023-10-09T04:04:23;12.82;;;7.57;;
41921;SDS011;27609;51.002;5.354;2023-10-09T04:06:49;14.85;;;7.55;;
41921;SDS011;27609;51.002;5.354;2023-10-09T04:09:18;16.20;;;7.25;;
41921;SDS011;27609;51.002;5.354;2023-10-09T04:11:48;16.83;;;7.47;;
41921;SDS011;27609;51.002;5.354;2023-10-09T04:14:22;12.60;;;7.80;;
41921;SDS011;27609;51.002;5.354;2023-10-09T04:16:57;12.35;;;7.90;;
41921;SDS011;27609;51.002;5.354;2023-10-09T04:19:31;19.45;;;8.32;;
41921;SDS011;27609;51.002;5.354;2023-10-09T04:22:13;13.77;;;8.43;;
41921;SDS011;27609;51.002;5.354;2023-10-09T04:24:51;12.38;;;7.82;;
41921;SDS011;27609;51.002;5.354;2023-10-09T04:27:17;17.98;;;8.88;;
41921;SDS011;27609;51.002;5.354;2023-10-09T04:29:42;13.38;;;8.00;;
41921;SDS011;27609;51.002;5.354;2023-10-09T04:32:14;12.68;;;8.05;;
41921;SDS011;27609;51.002;5.354;2023-10-09T04:34:43;13.20;;;8.68;;
41921;SDS011;27609;51.002;5.354;2023-10-09T04:37:21;20.88;;;10.85;;
41921;SDS011;27609;51.002;5.354;2023-10-09T04:40:02;15.75;;;10.60;;
41921;SDS011;27609;51.002;5.354;2023-10-09T04:42:58;11.68;;;7.75;;
41921;SDS011;27609;51.002;5.354;2023-10-09T04:45:24;13.90;;;8.68;;
41921;SDS011;27609;51.002;5.354;2023-10-09T04:48:08;13.38;;;7.97;;
41921;SDS011;27609;51.002;5.354;2023-10-09T04:50:34;18.80;;;8.80;;
41921;SDS011;27609;51.002;5.354;2023-10-09T04:53:01;14.70;;;8.27;;
41921;SDS011;27609;51.002;5.354;2023-10-09T04:55:47;15.95;;;7.88;;
41921;SDS011;27609;51.002;5.354;2023-10-09T04:58:23;15.45;;;8.32;;
41921;SDS011;27609;51.002;5.354;2023-10-09T05:00:51;14.73;;;8.75;;
41921;SDS011;27609;51.002;5.354;2023-10-09T05:03:40;13.60;;;8.85;;
41921;SDS011;27609;51.002;5.354;2023-10-09T05:06:06;17.25;;;9.02;;
41921;SDS011;27609;51.002;5.354;2023-10-09T05:08:51;20.15;;;9.15;;
41921;SDS011;27609;51.002;5.354;2023-10-09T05:11:21;15.30;;;9.43;;
41921;SDS011;27609;51.002;5.354;2023-10-09T05:14:00;15.50;;;8.68;;
41921;SDS011;27609;51.002;5.354;2023-10-09T05:16:38;15.90;;;8.35;;
41921;SDS011;27609;51.002;5.354;2023-10-09T05:19:23;12.00;;;7.60;;
41921;SDS011;27609;51.002;5.354;2023-10-09T05:22:07;13.85;;;8.73;;
41921;SDS011;27609;51.002;5.354;2023-10-09T05:24:55;19.92;;;10.50;;
41921;SDS011;27609;51.002;5.354;2023-10-09T05:27:21;21.35;;;9.77;;
41921;SDS011;27609;51.002;5.354;2023-10-09T05:30:06;20.05;;;10.25;;
41921;SDS011;27609;51.002;5.354;2023-10-09T05:32:49;14.65;;;8.43;;
41921;SDS011;27609;51.002;5.354;2023-10-09T05:35:45;15.60;;;8.93;;
41921;SDS011;27609;51.002;5.354;2023-10-09T05:38:30;15.85;;;10.13;;
41921;SDS011;27609;51.002;5.354;2023-10-09T05:41:00;24.58;;;9.90;;
41921;SDS011;27609;51.002;5.354;2023-10-09T05:43:46;16.52;;;8.88;;
41921;SDS011;27609;51.002;5.354;2023-10-09T05:46:30;16.02;;;9.23;;
41921;SDS011;27609;51.002;5.354;2023-10-09T05:49:00;16.10;;;9.45;;
41921;SDS011;27609;51.002;5.354;2023-10-09T05:51:34;14.98;;;9.73;;
41921;SDS011;27609;51.002;5.354;2023-10-09T05:54:06;16.27;;;9.85;;
41921;SDS011;27609;51.002;5.354;2023-10-09T05:57:10;14.23;;;8.85;;
41921;SDS011;27609;51.002;5.354;2023-10-09T06:00:11;17.85;;;10.30;;
41921;SDS011;27609;51.002;5.354;2023-10-09T06:02:56;22.13;;;11.18;;
41921;SDS011;27609;51.002;5.354;2023-10-09T06:05:40;16.48;;;8.98;;
41921;SDS011;27609;51.002;5.354;2023-10-09T06:08:06;17.88;;;8.98;;
41921;SDS011;27609;51.002;5.354;2023-10-09T06:10:32;18.35;;;9.52;;
41921;SDS011;27609;51.002;5.354;2023-10-09T06:13:06;16.42;;;9.27;;
41921;SDS011;27609;51.002;5.354;2023-10-09T06:15:38;15.73;;;9.15;;
41921;SDS011;27609;51.002;5.354;2023-10-09T06:18:13;21.80;;;10.32;;
41921;SDS011;27609;51.002;5.354;2023-10-09T06:20:51;17.75;;;9.60;;
41921;SDS011;27609;51.002;5.354;2023-10-09T06:23:55;14.45;;;8.82;;
41921;SDS011;27609;51.002;5.354;2023-10-09T06:26:39;18.88;;;8.75;;
41921;SDS011;27609;51.002;5.354;2023-10-09T06:29:16;16.13;;;8.70;;
41921;SDS011;27609;51.002;5.354;2023-10-09T06:31:58;17.70;;;9.75;;
41921;SDS011;27609;51.002;5.354;2023-10-09T06:34:41;16.38;;;10.23;;
41921;SDS011;27609;51.002;5.354;2023-10-09T06:37:10;16.15;;;8.50;;
41921;SDS011;27609;51.002;5.354;2023-10-09T06:39:48;16.92;;;9.68;;
41921;SDS011;27609;51.002;5.354;2023-10-09T06:42:17;17.00;;;9.63;;
41921;SDS011;27609;51.002;5.354;2023-10-09T06:45:15;18.00;;;9.45;;
41921;SDS011;27609;51.002;5.354;2023-10-09T06:47:42;15.93;;;9.63;;
41921;SDS011;27609;51.002;5.354;2023-10-09T06:50:29;12.30;;;8.60;;
41921;SDS011;27609;51.002;5.354;2023-10-09T06:53:13;16.60;;;9.13;;
41921;SDS011;27609;51.002;5.354;2023-10-09T06:55:39;16.15;;;8.95;;
41921;SDS011;27609;51.002;5.354;2023-10-09T06:58:21;20.42;;;9.45;;
41921;SDS011;27609;51.002;5.354;2023-10-09T07:00:53;21.42;;;11.15;;
41921;SDS011;27609;51.002;5.354;2023-10-09T07:08:56;16.92;;;9.00;;
41921;SDS011;27609;51.002;5.354;2023-10-09T07:11:34;13.23;;;8.80;;
41921;SDS011;27609;51.002;5.354;2023-10-09T07:16:54;16.83;;;8.80;;
41921;SDS011;27609;51.002;5.354;2023-10-09T07:19:23;13.73;;;9.13;;
41921;SDS011;27609;51.002;5.354;2023-10-09T07:22:08;15.55;;;8.55;;
41921;SDS011;27609;51.002;5.354;2023-10-09T07:27:29;16.70;;;9.48;;
41921;SDS011;27609;51.002;5.354;2023-10-09T07:30:18;23.83;;;10.15;;
41921;SDS011;27609;51.002;5.354;2023-10-09T07:35:35;15.90;;;9.35;;
41921;SDS011;27609;51.002;5.354;2023-10-09T07:40:55;13.15;;;8.38;;
41921;SDS011;27609;51.002;5.354;2023-10-09T07:43:41;16.60;;;9.50;;
41921;SDS011;27609;51.002;5.354;2023-10-09T07:46:10;15.45;;;8.85;;
41921;SDS011;27609;51.002;5.354;2023-10-09T07:48:57;14.75;;;8.77;;
41921;SDS011;27609;51.002;5.354;2023-10-09T07:51:26;17.83;;;9.77;;
41921;SDS011;27609;51.002;5.354;2023-10-09T07:53:58;18.38;;;9.63;;
41921;SDS011;27609;51.002;5.354;2023-10-09T07:56:37;22.00;;;9.57;;
41921;SDS011;27609;51.002;5.354;2023-10-09T07:59:06;12.90;;;8.90;;
41921;SDS011;27609;51.002;5.354;2023-10-09T08:01:50;14.52;;;9.07;;
41921;SDS011;27609;51.002;5.354;2023-10-09T08:04:29;19.42;;;9.45;;
41921;SDS011;27609;51.002;5.354;2023-10-09T08:07:13;14.25;;;8.80;;
41921;SDS011;27609;51.002;5.354;2023-10-09T08:09:51;16.65;;;8.57;;
41921;SDS011;27609;51.002;5.354;2023-10-09T08:12:35;15.90;;;9.25;;
41921;SDS011;27609;51.002;5.354;2023-10-09T08:15:30;18.70;;;10.00;;
41921;SDS011;27609;51.002;5.354;2023-10-09T08:18:16;16.05;;;8.50;;
41921;SDS011;27609;51.002;5.354;2023-10-09T08:20:53;19.50;;;9.43;;
41921;SDS011;27609;51.002;5.354;2023-10-09T08:23:22;18.35;;;9.60;;
41921;SDS011;27609;51.002;5.354;2023-10-09T08:26:01;22.23;;;10.73;;
41921;SDS011;27609;51.002;5.354;2023-10-09T08:28:40;15.90;;;9.63;;
41921;SDS011;27609;51.002;5.354;2023-10-09T08:31:16;16.58;;;8.95;;
41921;SDS011;27609;51.002;5.354;2023-10-09T08:34:10;18.05;;;9.13;;
41921;SDS011;27609;51.002;5.354;2023-10-09T08:36:48;14.50;;;8.45;;
41921;SDS011;27609;51.002;5.354;2023-10-09T08:39:17;18.63;;;9.18;;
41921;SDS011;27609;51.002;5.354;2023-10-09T08:41:53;19.20;;;9.40;;
41921;SDS011;27609;51.002;5.354;2023-10-09T08:44:23;15.98;;;9.45;;
41921;SDS011;27609;51.002;5.354;2023-10-09T08:46:51;17.65;;;10.00;;
41921;SDS011;27609;51.002;5.354;2023-10-09T08:49:19;17.05;;;9.75;;
41921;SDS011;27609;51.002;5.354;2023-10-09T08:51:46;16.80;;;8.88;;
41921;SDS011;27609;51.002;5.354;2023-10-09T08:54:13;17.05;;;9.25;;
41921;SDS011;27609;51.002;5.354;2023-10-09T08:56:40;13.10;;;8.18;;
41921;SDS011;27609;51.002;5.354;2023-10-09T08:59:14;14.88;;;9.38;;
41921;SDS011;27609;51.002;5.354;2023-10-09T09:01:43;13.07;;;8.50;;
41921;SDS011;27609;51.002;5.354;2023-10-09T09:04:09;13.45;;;8.65;;
41921;SDS011;27609;51.002;5.354;2023-10-09T09:06:39;18.92;;;9.05;;
41921;SDS011;27609;51.002;5.354;2023-10-09T09:09:12;12.45;;;7.95;;
41921;SDS011;27609;51.002;5.354;2023-10-09T09:11:41;18.88;;;9.45;;
41921;SDS011;27609;51.002;5.354;2023-10-09T09:14:14;16.20;;;8.32;;
41921;SDS011;27609;51.002;5.354;2023-10-09T09:16:44;12.52;;;8.05;;
41921;SDS011;27609;51.002;5.354;2023-10-09T09:19:13;11.67;;;7.50;;
41921;SDS011;27609;51.002;5.354;2023-10-09T09:21:50;13.23;;;8.00;;
41921;SDS011;27609;51.002;5.354;2023-10-09T09:24:24;13.85;;;8.65;;
41921;SDS011;27609;51.002;5.354;2023-10-09T09:26:51;15.30;;;8.35;;
41921;SDS011;27609;51.002;5.354;2023-10-09T09:29:43;14.68;;;7.43;;
41921;SDS011;27609;51.002;5.354;2023-10-09T09:32:18;19.65;;;8.05;;
41921;SDS011;27609;51.002;5.354;2023-10-09T09:35:05;15.07;;;7.65;;
41921;SDS011;27609;51.002;5.354;2023-10-09T09:37:52;10.75;;;7.15;;
41921;SDS011;27609;51.002;5.354;2023-10-09T09:40:19;12.07;;;7.68;;
41921;SDS011;27609;51.002;5.354;2023-10-09T09:42:58;14.07;;;7.57;;
41921;SDS011;27609;51.002;5.354;2023-10-09T09:45:30;15.07;;;8.85;;
41921;SDS011;27609;51.002;5.354;2023-10-09T09:48:03;14.18;;;8.10;;
41921;SDS011;27609;51.002;5.354;2023-10-09T09:50:41;12.20;;;7.53;;
41921;SDS011;27609;51.002;5.354;2023-10-09T09:53:11;16.75;;;6.85;;
41921;SDS011;27609;51.002;5.354;2023-10-09T09:55:53;16.50;;;8.93;;
41921;SDS011;27609;51.002;5.354;2023-10-09T09:58:23;18.40;;;7.80;;
41921;SDS011;27609;51.002;5.354;2023-10-09T10:00:52;17.60;;;7.10;;
41921;SDS011;27609;51.002;5.354;2023-10-09T10:03:23;14.25;;;7.53;;
41921;SDS011;27609;51.002;5.354;2023-10-09T10:05:57;13.57;;;7.32;;
41921;SDS011;27609;51.002;5.354;2023-10-09T10:08:25;13.35;;;8.18;;
41921;SDS011;27609;51.002;5.354;2023-10-09T10:11:00;15.55;;;7.80;;
41921;SDS011;27609;51.002;5.354;2023-10-09T10:16:13;13.07;;;7.97;;
41921;SDS011;27609;51.002;5.354;2023-10-09T10:21:18;10.90;;;7.65;;
41921;SDS011;27609;51.002;5.354;2023-10-09T10:24:01;20.02;;;8.32;;
41921;SDS011;27609;51.002;5.354;2023-10-09T10:26:35;15.35;;;7.72;;
41921;SDS011;27609;51.002;5.354;2023-10-09T10:29:20;18.75;;;9.00;;
41921;SDS011;27609;51.002;5.354;2023-10-09T10:34:19;16.33;;;7.35;;
41921;SDS011;27609;51.002;5.354;2023-10-09T10:36:48;13.87;;;6.90;;
41921;SDS011;27609;51.002;5.354;2023-10-09T10:39:26;13.63;;;6.68;;
41921;SDS011;27609;51.002;5.354;2023-10-09T10:42:10;12.30;;;7.05;;
41921;SDS011;27609;51.002;5.354;2023-10-09T10:44:58;16.02;;;7.95;;
41921;SDS011;27609;51.002;5.354;2023-10-09T10:47:27;12.90;;;7.00;;
41921;SDS011;27609;51.002;5.354;2023-10-09T10:50:00;15.00;;;7.30;;
41921;SDS011;27609;51.002;5.354;2023-10-09T10:55:59;10.57;;;5.88;;
41921;SDS011;27609;51.002;5.354;2023-10-09T10:58:40;11.23;;;6.20;;
41921;SDS011;27609;51.002;5.354;2023-10-09T11:01:19;10.82;;;5.68;;
41921;SDS011;27609;51.002;5.354;2023-10-09T11:03:48;11.05;;;5.78;;
41921;SDS011;27609;51.002;5.354;2023-10-09T11:06:27;8.52;;;5.68;;
41921;SDS011;27609;51.002;5.354;2023-10-09T11:09:06;10.27;;;5.60;;
41921;SDS011;27609;51.002;5.354;2023-10-09T11:11:49;9.88;;;6.00;;
41921;SDS011;27609;51.002;5.354;2023-10-09T11:14:20;10.63;;;6.20;;
41921;SDS011;27609;51.002;5.354;2023-10-09T11:16:49;12.88;;;6.40;;
41921;SDS011;27609;51.002;5.354;2023-10-09T11:19:21;10.60;;;6.30;;
41921;SDS011;27609;51.002;5.354;2023-10-09T11:22:03;10.63;;;5.93;;
41921;SDS011;27609;51.002;5.354;2023-10-09T11:24:33;13.40;;;5.57;;
41921;SDS011;27609;51.002;5.354;2023-10-09T11:27:00;10.32;;;5.50;;
41921;SDS011;27609;51.002;5.354;2023-10-09T11:29:30;11.63;;;6.15;;
41921;SDS011;27609;51.002;5.354;2023-10-09T11:32:16;9.73;;;5.53;;
41921;SDS011;27609;51.002;5.354;2023-10-09T11:34:43;13.63;;;5.85;;
41921;SDS011;27609;51.002;5.354;2023-10-09T11:37:19;12.55;;;6.15;;
41921;SDS011;27609;51.002;5.354;2023-10-09T11:39:53;13.25;;;5.82;;
41921;SDS011;27609;51.002;5.354;2023-10-09T11:42:20;11.32;;;5.82;;
41921;SDS011;27609;51.002;5.354;2023-10-09T11:45:06;13.07;;;5.85;;
41921;SDS011;27609;51.002;5.354;2023-10-09T11:47:45;10.23;;;5.97;;
41921;SDS011;27609;51.002;5.354;2023-10-09T11:50:40;10.00;;;5.70;;
41921;SDS011;27609;51.002;5.354;2023-10-09T11:53:08;11.38;;;5.35;;
41921;SDS011;27609;51.002;5.354;2023-10-09T11:55:35;11.82;;;5.50;;
41921;SDS011;27609;51.002;5.354;2023-10-09T11:58:02;8.65;;;5.22;;
41921;SDS011;27609;51.002;5.354;2023-10-09T12:00:30;14.75;;;5.55;;
41921;SDS011;27609;51.002;5.354;2023-10-09T12:03:07;12.55;;;5.28;;
41921;SDS011;27609;51.002;5.354;2023-10-09T12:05:34;12.98;;;5.63;;
41921;SDS011;27609;51.002;5.354;2023-10-09T12:07:59;12.27;;;5.53;;
41921;SDS011;27609;51.002;5.354;2023-10-09T12:10:27;13.75;;;6.07;;
41921;SDS011;27609;51.002;5.354;2023-10-09T12:12:54;10.57;;;5.18;;
41921;SDS011;27609;51.002;5.354;2023-10-09T12:15:23;9.38;;;5.20;;
41921;SDS011;27609;51.002;5.354;2023-10-09T12:17:49;14.93;;;6.07;;
41921;SDS011;27609;51.002;5.354;2023-10-09T12:20:18;15.05;;;6.18;;
41921;SDS011;27609;51.002;5.354;2023-10-09T12:22:59;12.15;;;6.07;;
41921;SDS011;27609;51.002;5.354;2023-10-09T12:27:56;10.82;;;6.07;;
41921;SDS011;27609;51.002;5.354;2023-10-09T12:30:27;7.90;;;5.28;;
41921;SDS011;27609;51.002;5.354;2023-10-09T12:32:56;12.90;;;6.00;;
41921;SDS011;27609;51.002;5.354;2023-10-09T12:35:26;10.02;;;5.47;;
41921;SDS011;27609;51.002;5.354;2023-10-09T12:37:53;10.27;;;5.43;;
41921;SDS011;27609;51.002;5.354;2023-10-09T12:40:20;13.18;;;5.72;;
41921;SDS011;27609;51.002;5.354;2023-10-09T12:42:50;10.05;;;5.82;;
41921;SDS011;27609;51.002;5.354;2023-10-09T12:45:20;9.75;;;5.55;;
41921;SDS011;27609;51.002;5.354;2023-10-09T12:47:51;13.73;;;6.07;;
41921;SDS011;27609;51.002;5.354;2023-10-09T12:50:33;8.57;;;5.30;;
41921;SDS011;27609;51.002;5.354;2023-10-09T12:53:00;9.40;;;5.28;;
41921;SDS011;27609;51.002;5.354;2023-10-09T12:55:35;12.65;;;6.10;;
41921;SDS011;27609;51.002;5.354;2023-10-09T12:58:08;8.88;;;5.65;;
41921;SDS011;27609;51.002;5.354;2023-10-09T13:00:35;10.90;;;5.45;;
41921;SDS011;27609;51.002;5.354;2023-10-09T13:03:09;12.43;;;5.82;;
41921;SDS011;27609;51.002;5.354;2023-10-09T13:05:48;11.65;;;4.93;;
41921;SDS011;27609;51.002;5.354;2023-10-09T13:08:25;18.17;;;6.00;;
41921;SDS011;27609;51.002;5.354;2023-10-09T13:13:41;15.32;;;5.60;;
41921;SDS011;27609;51.002;5.354;2023-10-09T13:16:17;13.68;;;6.13;;
41921;SDS011;27609;51.002;5.354;2023-10-09T13:18:53;10.10;;;5.80;;
41921;SDS011;27609;51.002;5.354;2023-10-09T13:21:20;9.60;;;4.97;;
41921;SDS011;27609;51.002;5.354;2023-10-09T13:23:48;10.82;;;6.05;;
41921;SDS011;27609;51.002;5.354;2023-10-09T13:26:19;11.85;;;5.72;;
41921;SDS011;27609;51.002;5.354;2023-10-09T13:28:49;16.13;;;6.18;;
41921;SDS011;27609;51.002;5.354;2023-10-09T13:31:18;10.60;;;5.73;;
41921;SDS011;27609;51.002;5.354;2023-10-09T13:33:46;9.15;;;5.65;;
41921;SDS011;27609;51.002;5.354;2023-10-09T13:36:13;13.82;;;7.07;;
41921;SDS011;27609;51.002;5.354;2023-10-09T13:38:44;12.70;;;6.55;;
41921;SDS011;27609;51.002;5.354;2023-10-09T13:41:11;11.70;;;6.25;;
41921;SDS011;27609;51.002;5.354;2023-10-09T13:43:43;12.90;;;6.65;;
41921;SDS011;27609;51.002;5.354;2023-10-09T13:46:12;9.10;;;6.10;;
41921;SDS011;27609;51.002;5.354;2023-10-09T13:48:41;14.02;;;5.72;;
41921;SDS011;27609;51.002;5.354;2023-10-09T13:51:08;12.90;;;6.05;;
41921;SDS011;27609;51.002;5.354;2023-10-09T13:53:39;10.43;;;5.07;;
41921;SDS011;27609;51.002;5.354;2023-10-09T13:56:19;10.02;;;5.55;;
41921;SDS011;27609;51.002;5.354;2023-10-09T13:58:46;10.63;;;7.22;;
41921;SDS011;27609;51.002;5.354;2023-10-09T14:01:14;11.98;;;5.72;;
41921;SDS011;27609;51.002;5.354;2023-10-09T14:03:56;9.85;;;6.35;;
41921;SDS011;27609;51.002;5.354;2023-10-09T14:06:23;12.52;;;6.03;;
41921;SDS011;27609;51.002;5.354;2023-10-09T14:08:59;13.70;;;6.45;;
41921;SDS011;27609;51.002;5.354;2023-10-09T14:11:33;13.10;;;5.85;;
41921;SDS011;27609;51.002;5.354;2023-10-09T14:14:03;10.70;;;6.00;;
41921;SDS011;27609;51.002;5.354;2023-10-09T14:16:34;14.55;;;6.20;;
41921;SDS011;27609;51.002;5.354;2023-10-09T14:19:01;12.50;;;5.53;;
41921;SDS011;27609;51.002;5.354;2023-10-09T14:21:32;13.77;;;6.40;;
41921;SDS011;27609;51.002;5.354;2023-10-09T14:24:03;15.20;;;7.00;;
41921;SDS011;27609;51.002;5.354;2023-10-09T14:26:40;13.57;;;6.35;;
41921;SDS011;27609;51.002;5.354;2023-10-09T14:29:06;11.25;;;6.18;;
41921;SDS011;27609;51.002;5.354;2023-10-09T14:31:32;13.27;;;7.72;;
41921;SDS011;27609;51.002;5.354;2023-10-09T14:34:04;10.20;;;7.13;;
41921;SDS011;27609;51.002;5.354;2023-10-09T14:36:30;14.48;;;7.13;;
41921;SDS011;27609;51.002;5.354;2023-10-09T14:38:59;12.18;;;6.03;;
41921;SDS011;27609;51.002;5.354;2023-10-09T14:41:26;12.07;;;6.35;;
41921;SDS011;27609;51.002;5.354;2023-10-09T14:43:53;13.52;;;6.47;;
41921;SDS011;27609;51.002;5.354;2023-10-09T14:46:19;14.32;;;6.70;;
41921;SDS011;27609;51.002;5.354;2023-10-09T14:48:55;13.93;;;6.47;;
41921;SDS011;27609;51.002;5.354;2023-10-09T14:51:21;16.55;;;6.78;;
41921;SDS011;27609;51.002;5.354;2023-10-09T14:53:53;12.52;;;5.97;;
41921;SDS011;27609;51.002;5.354;2023-10-09T14:56:22;14.60;;;6.75;;
41921;SDS011;27609;51.002;5.354;2023-10-09T14:58:54;12.65;;;6.82;;
41921;SDS011;27609;51.002;5.354;2023-10-09T15:03:56;16.52;;;6.68;;
41921;SDS011;27609;51.002;5.354;2023-10-09T15:06:28;11.77;;;6.90;;
41921;SDS011;27609;51.002;5.354;2023-10-09T15:08:58;12.70;;;6.30;;
41921;SDS011;27609;51.002;5.354;2023-10-09T15:11:48;15.00;;;7.70;;
41921;SDS011;27609;51.002;5.354;2023-10-09T15:14:15;13.35;;;8.50;;
41921;SDS011;27609;51.002;5.354;2023-10-09T15:16:43;16.10;;;9.75;;
41921;SDS011;27609;51.002;5.354;2023-10-09T15:19:09;18.83;;;10.75;;
41921;SDS011;27609;51.002;5.354;2023-10-09T15:21:36;17.17;;;8.65;;
41921;SDS011;27609;51.002;5.354;2023-10-09T15:24:09;12.90;;;8.07;;
41921;SDS011;27609;51.002;5.354;2023-10-09T15:26:37;16.63;;;8.32;;
41921;SDS011;27609;51.002;5.354;2023-10-09T15:29:05;15.32;;;8.75;;
41921;SDS011;27609;51.002;5.354;2023-10-09T15:31:31;14.55;;;7.78;;
41921;SDS011;27609;51.002;5.354;2023-10-09T15:33:58;14.00;;;7.68;;
41921;SDS011;27609;51.002;5.354;2023-10-09T15:36:24;11.90;;;6.68;;
41921;SDS011;27609;51.002;5.354;2023-10-09T15:38:53;15.63;;;7.93;;
41921;SDS011;27609;51.002;5.354;2023-10-09T15:41:24;12.32;;;7.03;;
41921;SDS011;27609;51.002;5.354;2023-10-09T15:43:55;17.77;;;8.25;;
41921;SDS011;27609;51.002;5.354;2023-10-09T15:46:22;16.30;;;7.97;;
41921;SDS011;27609;51.002;5.354;2023-10-09T15:48:48;16.85;;;8.40;;